sensor_id;sensor_type;location;lat;lon;timestamp;pressure;altitude;pressure_sealevel;temperature;humidity
80504;BME280;69825;51.190;6.808;2023-06-26T00:02:02;101033.31;;;30.12;41.76
80504;BME280;69825;51.190;6.808;2023-06-26T00:04:28;101031.63;;;30.11;41.50
80504;BME280;69825;51.190;6.808;2023-06-26T00:06:53;101034.41;;;30.11;41.26
80504;BME280;69825;51.190;6.808;2023-06-26T00:09:19;101031.63;;;30.11;41.17
80504;BME280;69825;51.190;6.808;2023-06-26T00:11:44;101032.72;;;30.10;41.34
80504;BME280;69825;51.190;6.808;2023-06-26T00:14:09;101035.50;;;30.10;41.62
80504;BME280;69825;51.190;6.808;2023-06-26T00:16:35;101035.50;;;30.10;41.25
80504;BME280;69825;51.190;6.808;2023-06-26T00:19:01;101042.75;;;30.11;41.82
80504;BME280;69825;51.190;6.808;2023-06-26T00:21:26;101034.41;;;30.11;41.75
80504;BME280;69825;51.190;6.808;2023-06-26T00:23:52;101034.41;;;30.11;41.74
80504;BME280;69825;51.190;6.808;2023-06-26T00:26:17;101035.50;;;30.10;41.83
80504;BME280;69825;51.190;6.808;2023-06-26T00:28:43;101037.19;;;30.11;41.76
80504;BME280;69825;51.190;6.808;2023-06-26T00:31:08;101035.50;;;30.10;41.45
80504;BME280;69825;51.190;6.808;2023-06-26T00:33:33;101034.66;;;30.10;41.76
80504;BME280;69825;51.190;6.808;2023-06-26T00:35:59;101026.00;;;30.06;41.63
80504;BME280;69825;51.190;6.808;2023-06-26T00:38:24;101029.94;;;30.10;41.31
80504;BME280;69825;51.190;6.808;2023-06-26T00:40:50;101019.00;;;30.04;41.74
80504;BME280;69825;51.190;6.808;2023-06-26T00:43:15;101030.78;;;30.11;41.88
80504;BME280;69825;51.190;6.808;2023-06-26T00:45:40;101024.38;;;30.10;41.43
80504;BME280;69825;51.190;6.808;2023-06-26T00:48:06;101021.59;;;30.10;41.33
80504;BME280;69825;51.190;6.808;2023-06-26T00:50:31;101028.25;;;30.09;41.47
80504;BME280;69825;51.190;6.808;2023-06-26T00:52:57;101023.53;;;30.10;41.50
80504;BME280;69825;51.190;6.808;2023-06-26T00:55:28;101030.22;;;30.09;41.88
80504;BME280;69825;51.190;6.808;2023-06-26T00:57:55;101024.66;;;30.09;41.34
80504;BME280;69825;51.190;6.808;2023-06-26T01:00:21;101029.94;;;30.10;41.28
80504;BME280;69825;51.190;6.808;2023-06-26T01:02:46;101027.44;;;30.09;41.76
80504;BME280;69825;51.190;6.808;2023-06-26T01:05:12;101019.34;;;30.07;41.85
80504;BME280;69825;51.190;6.808;2023-06-26T01:07:44;101020.75;;;30.10;41.41
80504;BME280;69825;51.190;6.808;2023-06-26T01:10:09;101017.13;;;30.09;41.70
80504;BME280;69825;51.190;6.808;2023-06-26T01:12:35;101010.72;;;30.09;41.46
80504;BME280;69825;51.190;6.808;2023-06-26T01:15:01;101004.31;;;30.08;41.64
80504;BME280;69825;51.190;6.808;2023-06-26T01:17:27;101009.88;;;30.08;41.32
80504;BME280;69825;51.190;6.808;2023-06-26T01:19:58;101011.53;;;30.09;41.48
80504;BME280;69825;51.190;6.808;2023-06-26T01:22:45;101001.97;;;30.00;42.03
80504;BME280;69825;51.190;6.808;2023-06-26T01:25:38;100995.38;;;30.06;41.70
80504;BME280;69825;51.190;6.808;2023-06-26T01:28:07;100998.22;;;30.11;41.57
80504;BME280;69825;51.190;6.808;2023-06-26T01:30:34;100994.84;;;30.09;41.61
80504;BME280;69825;51.190;6.808;2023-06-26T01:33:02;100995.13;;;30.08;41.37
80504;BME280;69825;51.190;6.808;2023-06-26T01:35:28;100997.06;;;30.07;41.92
80504;BME280;69825;51.190;6.808;2023-06-26T01:37:53;100996.22;;;30.07;41.27
80504;BME280;69825;51.190;6.808;2023-06-26T01:40:19;100988.13;;;30.05;41.53
80504;BME280;69825;51.190;6.808;2023-06-26T01:42:44;100990.66;;;30.07;41.71
80504;BME280;69825;51.190;6.808;2023-06-26T01:45:24;100990.91;;;30.05;41.39
80504;BME280;69825;51.190;6.808;2023-06-26T01:47:52;100991.50;;;30.07;41.47
80504;BME280;69825;51.190;6.808;2023-06-26T01:50:22;100991.50;;;30.07;41.62
80504;BME280;69825;51.190;6.808;2023-06-26T01:52:51;100994.28;;;30.07;41.66
80504;BME280;69825;51.190;6.808;2023-06-26T01:55:27;100989.81;;;30.06;41.91
80504;BME280;69825;51.190;6.808;2023-06-26T01:57:56;100993.19;;;30.08;41.78
80504;BME280;69825;51.190;6.808;2023-06-26T02:00:23;101002.63;;;30.07;41.64
80504;BME280;69825;51.190;6.808;2023-06-26T02:02:49;100983.59;;;29.99;41.28
80504;BME280;69825;51.190;6.808;2023-06-26T02:05:14;101004.56;;;30.07;41.47
80504;BME280;69825;51.190;6.808;2023-06-26T02:07:40;101013.75;;;30.07;41.92
80504;BME280;69825;51.190;6.808;2023-06-26T02:10:06;101008.44;;;30.06;41.88
80504;BME280;69825;51.190;6.808;2023-06-26T02:12:31;101014.84;;;30.06;41.52
80504;BME280;69825;51.190;6.808;2023-06-26T02:14:56;101006.75;;;30.05;41.42
80504;BME280;69825;51.190;6.808;2023-06-26T02:17:22;101023.22;;;30.06;41.84
80504;BME280;69825;51.190;6.808;2023-06-26T02:19:47;101023.22;;;30.06;41.82
80504;BME280;69825;51.190;6.808;2023-06-26T02:22:16;101025.16;;;30.06;41.97
80504;BME280;69825;51.190;6.808;2023-06-26T02:24:44;100998.59;;;29.98;41.64
80504;BME280;69825;51.190;6.808;2023-06-26T02:27:10;101016.47;;;30.02;41.81
80504;BME280;69825;51.190;6.808;2023-06-26T02:29:35;101015.94;;;30.05;41.59
80504;BME280;69825;51.190;6.808;2023-06-26T02:32:01;101011.47;;;30.04;41.67
80504;BME280;69825;51.190;6.808;2023-06-26T02:34:27;101005.84;;;29.99;41.82
80504;BME280;69825;51.190;6.808;2023-06-26T02:36:52;101026.25;;;30.05;41.46
80504;BME280;69825;51.190;6.808;2023-06-26T02:39:21;101020.25;;;29.96;41.65
80504;BME280;69825;51.190;6.808;2023-06-26T02:41:47;101048.50;;;30.05;42.36
80504;BME280;69825;51.190;6.808;2023-06-26T02:44:12;101046.81;;;30.04;41.53
80504;BME280;69825;51.190;6.808;2023-06-26T02:46:38;101048.50;;;30.05;41.39
80504;BME280;69825;51.190;6.808;2023-06-26T02:49:04;101047.66;;;30.04;41.79
80504;BME280;69825;51.190;6.808;2023-06-26T02:51:31;101045.97;;;30.03;41.45
80504;BME280;69825;51.190;6.808;2023-06-26T02:53:57;101049.34;;;30.05;41.90
80504;BME280;69825;51.190;6.808;2023-06-26T02:56:22;101047.66;;;30.04;42.08
80504;BME280;69825;51.190;6.808;2023-06-26T02:58:47;101052.13;;;30.05;41.71
80504;BME280;69825;51.190;6.808;2023-06-26T03:01:13;101056.00;;;30.04;41.52
80504;BME280;69825;51.190;6.808;2023-06-26T03:03:38;101064.38;;;30.04;41.63
80504;BME280;69825;51.190;6.808;2023-06-26T03:06:08;101052.06;;;30.00;41.84
80504;BME280;69825;51.190;6.808;2023-06-26T03:08:36;101062.66;;;30.03;41.69
80504;BME280;69825;51.190;6.808;2023-06-26T03:11:02;101064.38;;;30.04;41.71
80504;BME280;69825;51.190;6.808;2023-06-26T03:13:27;101075.50;;;30.04;41.96
80504;BME280;69825;51.190;6.808;2023-06-26T03:15:52;101075.50;;;30.04;41.72
80504;BME280;69825;51.190;6.808;2023-06-26T03:18:18;101082.16;;;30.03;41.58
80504;BME280;69825;51.190;6.808;2023-06-26T03:20:43;101079.38;;;30.03;41.55
80504;BME280;69825;51.190;6.808;2023-06-26T03:23:09;101078.53;;;30.03;41.52
80504;BME280;69825;51.190;6.808;2023-06-26T03:25:34;101073.81;;;30.03;41.62
80504;BME280;69825;51.190;6.808;2023-06-26T03:27:59;101073.81;;;30.03;41.87
80504;BME280;69825;51.190;6.808;2023-06-26T03:30:25;101077.72;;;30.02;41.80
80504;BME280;69825;51.190;6.808;2023-06-26T03:32:50;101078.53;;;30.03;41.62
80504;BME280;69825;51.190;6.808;2023-06-26T03:35:15;101079.38;;;30.03;41.67
80504;BME280;69825;51.190;6.808;2023-06-26T03:37:41;101077.72;;;30.02;41.89
80504;BME280;69825;51.190;6.808;2023-06-26T03:40:07;101083.28;;;30.02;41.60
80504;BME280;69825;51.190;6.808;2023-06-26T03:42:32;101083.28;;;30.02;42.16
80504;BME280;69825;51.190;6.808;2023-06-26T03:44:57;101077.38;;;29.99;41.68
80504;BME280;69825;51.190;6.808;2023-06-26T03:47:23;101091.63;;;30.02;41.95
80504;BME280;69825;51.190;6.808;2023-06-26T03:49:48;101080.91;;;29.94;41.56
80504;BME280;69825;51.190;6.808;2023-06-26T03:52:14;101099.13;;;30.02;42.09
80504;BME280;69825;51.190;6.808;2023-06-26T03:54:39;101090.19;;;30.00;42.04
80504;BME280;69825;51.190;6.808;2023-06-26T03:57:04;101077.84;;;29.96;41.90
80504;BME280;69825;51.190;6.808;2023-06-26T03:59:30;101092.72;;;30.01;41.80
80504;BME280;69825;51.190;6.808;2023-06-26T04:01:55;101099.13;;;30.02;42.17
80504;BME280;69825;51.190;6.808;2023-06-26T04:04:21;101099.13;;;30.02;41.67
80504;BME280;69825;51.190;6.808;2023-06-26T04:06:47;101112.22;;;30.01;41.59
80504;BME280;69825;51.190;6.808;2023-06-26T04:09:12;101112.22;;;30.01;42.11
80504;BME280;69825;51.190;6.808;2023-06-26T04:11:37;101115.00;;;30.01;41.83
80504;BME280;69825;51.190;6.808;2023-06-26T04:14:03;101121.41;;;30.02;41.99
80504;BME280;69825;51.190;6.808;2023-06-26T04:16:28;101113.47;;;29.94;41.92
80504;BME280;69825;51.190;6.808;2023-06-26T04:18:54;101125.28;;;30.01;42.24
80504;BME280;69825;51.190;6.808;2023-06-26T04:21:21;101115.88;;;29.90;41.86
80504;BME280;69825;51.190;6.808;2023-06-26T04:23:48;101134.72;;;30.00;42.22
80504;BME280;69825;51.190;6.808;2023-06-26T04:26:14;101140.03;;;30.01;41.46
80504;BME280;69825;51.190;6.808;2023-06-26T04:28:40;101135.56;;;30.00;41.69
80504;BME280;69825;51.190;6.808;2023-06-26T04:31:05;101141.13;;;30.00;42.09
80504;BME280;69825;51.190;6.808;2023-06-26T04:33:31;101141.97;;;30.01;41.63
80504;BME280;69825;51.190;6.808;2023-06-26T04:35:56;101121.19;;;29.92;42.09
80504;BME280;69825;51.190;6.808;2023-06-26T04:38:22;101135.56;;;30.00;41.82
80504;BME280;69825;51.190;6.808;2023-06-26T04:40:48;101141.13;;;30.00;42.10
80504;BME280;69825;51.190;6.808;2023-06-26T04:43:14;101122.06;;;29.92;41.53
80504;BME280;69825;51.190;6.808;2023-06-26T04:45:39;101133.63;;;30.01;41.80
80504;BME280;69825;51.190;6.808;2023-06-26T04:48:05;101146.69;;;30.00;41.69
80504;BME280;69825;51.190;6.808;2023-06-26T04:50:31;101140.28;;;30.00;41.73
80504;BME280;69825;51.190;6.808;2023-06-26T04:52:56;101152.25;;;30.00;42.32
80504;BME280;69825;51.190;6.808;2023-06-26T04:55:24;101152.25;;;30.00;42.14
80504;BME280;69825;51.190;6.808;2023-06-26T04:57:49;101138.28;;;29.95;41.59
80504;BME280;69825;51.190;6.808;2023-06-26T05:00:15;101147.78;;;29.99;41.55
80504;BME280;69825;51.190;6.808;2023-06-26T05:02:40;101160.63;;;30.00;41.91
80504;BME280;69825;51.190;6.808;2023-06-26T05:05:06;101154.44;;;29.98;41.74
80504;BME280;69825;51.190;6.808;2023-06-26T05:07:31;101158.69;;;30.01;42.26
80504;BME280;69825;51.190;6.808;2023-06-26T05:09:56;101159.53;;;30.01;41.87
80504;BME280;69825;51.190;6.808;2023-06-26T05:12:22;101162.31;;;30.01;41.84
80504;BME280;69825;51.190;6.808;2023-06-26T05:14:47;101161.47;;;30.01;42.00
80504;BME280;69825;51.190;6.808;2023-06-26T05:17:15;101165.56;;;29.98;41.68
80504;BME280;69825;51.190;6.808;2023-06-26T05:19:41;101170.66;;;30.01;41.96
80504;BME280;69825;51.190;6.808;2023-06-26T05:22:07;101174.53;;;30.00;41.74
80504;BME280;69825;51.190;6.808;2023-06-26T05:24:35;101174.53;;;30.00;41.99
80504;BME280;69825;51.190;6.808;2023-06-26T05:27:00;101181.19;;;29.99;42.12
80504;BME280;69825;51.190;6.808;2023-06-26T05:29:26;101170.66;;;30.01;41.76
80504;BME280;69825;51.190;6.808;2023-06-26T05:31:53;101182.88;;;30.00;41.65
80504;BME280;69825;51.190;6.808;2023-06-26T05:34:20;101195.69;;;30.01;42.11
80504;BME280;69825;51.190;6.808;2023-06-26T05:36:50;101198.47;;;30.01;42.04
80504;BME280;69825;51.190;6.808;2023-06-26T05:39:17;101192.91;;;30.01;41.90
80504;BME280;69825;51.190;6.808;2023-06-26T05:41:44;101187.34;;;30.01;41.73
80504;BME280;69825;51.190;6.808;2023-06-26T05:44:09;101196.56;;;30.02;41.77
80504;BME280;69825;51.190;6.808;2023-06-26T05:46:35;101195.69;;;30.01;41.44
80504;BME280;69825;51.190;6.808;2023-06-26T05:49:00;101204.06;;;30.01;41.83
80504;BME280;69825;51.190;6.808;2023-06-26T05:51:27;101200.19;;;30.02;41.86
80504;BME280;69825;51.190;6.808;2023-06-26T05:53:52;101204.91;;;30.02;42.38
80504;BME280;69825;51.190;6.808;2023-06-26T05:56:18;101204.91;;;30.02;41.97
80504;BME280;69825;51.190;6.808;2023-06-26T05:58:44;101195.69;;;30.01;41.97
80504;BME280;69825;51.190;6.808;2023-06-26T06:01:09;101200.19;;;30.02;41.67
80504;BME280;69825;51.190;6.808;2023-06-26T06:03:34;101195.94;;;30.00;42.10
80504;BME280;69825;51.190;6.808;2023-06-26T06:06:00;101205.75;;;30.02;42.04
80504;BME280;69825;51.190;6.808;2023-06-26T06:08:25;101203.78;;;30.03;41.64
80504;BME280;69825;51.190;6.808;2023-06-26T06:10:50;101208.25;;;30.04;41.64
80504;BME280;69825;51.190;6.808;2023-06-26T06:13:16;101210.19;;;30.03;42.05
80504;BME280;69825;51.190;6.808;2023-06-26T06:15:41;101212.13;;;30.03;41.98
80504;BME280;69825;51.190;6.808;2023-06-26T06:18:06;101215.75;;;30.03;41.93
80504;BME280;69825;51.190;6.808;2023-06-26T06:20:32;101221.31;;;30.03;42.30
80504;BME280;69825;51.190;6.808;2023-06-26T06:22:57;101224.09;;;30.03;41.88
80504;BME280;69825;51.190;6.808;2023-06-26T06:25:22;101218.53;;;30.03;41.65
80504;BME280;69825;51.190;6.808;2023-06-26T06:27:48;101219.06;;;30.00;42.21
80504;BME280;69825;51.190;6.808;2023-06-26T06:30:13;101236.09;;;30.04;42.09
80504;BME280;69825;51.190;6.808;2023-06-26T06:32:39;101246.38;;;30.03;42.10
80504;BME280;69825;51.190;6.808;2023-06-26T06:35:04;101246.38;;;30.03;42.05
80504;BME280;69825;51.190;6.808;2023-06-26T06:37:35;101243.34;;;30.05;42.21
80504;BME280;69825;51.190;6.808;2023-06-26T06:40:00;101257.50;;;30.03;42.17
80504;BME280;69825;51.190;6.808;2023-06-26T06:42:25;101246.38;;;30.03;42.20
80504;BME280;69825;51.190;6.808;2023-06-26T06:44:51;101264.78;;;30.04;42.15
80504;BME280;69825;51.190;6.808;2023-06-26T06:47:16;101257.50;;;30.03;42.09
80504;BME280;69825;51.190;6.808;2023-06-26T06:49:41;101253.63;;;30.04;42.14
80504;BME280;69825;51.190;6.808;2023-06-26T06:52:07;101265.63;;;30.05;41.90
80504;BME280;69825;51.190;6.808;2023-06-26T06:54:51;101249.59;;;29.95;41.80
80504;BME280;69825;51.190;6.808;2023-06-26T06:57:16;101258.72;;;30.07;41.58
80504;BME280;69825;51.190;6.808;2023-06-26T06:59:42;101266.47;;;30.05;41.71
80504;BME280;69825;51.190;6.808;2023-06-26T07:02:07;101273.72;;;30.06;42.03
80504;BME280;69825;51.190;6.808;2023-06-26T07:04:32;101273.72;;;30.06;41.65
80504;BME280;69825;51.190;6.808;2023-06-26T07:06:58;101275.34;;;30.02;42.02
80504;BME280;69825;51.190;6.808;2023-06-26T07:09:23;101284.84;;;30.06;42.31
80504;BME280;69825;51.190;6.808;2023-06-26T07:11:48;101293.22;;;30.06;41.89
80504;BME280;69825;51.190;6.808;2023-06-26T07:14:14;101290.44;;;30.06;42.15
80504;BME280;69825;51.190;6.808;2023-06-26T07:16:39;101287.66;;;30.06;41.86
80504;BME280;69825;51.190;6.808;2023-06-26T07:19:05;101287.66;;;30.06;41.62
80504;BME280;69825;51.190;6.808;2023-06-26T07:21:31;101293.22;;;30.06;41.86
80504;BME280;69825;51.190;6.808;2023-06-26T07:23:56;101292.13;;;30.07;42.12
80504;BME280;69825;51.190;6.808;2023-06-26T07:26:21;101292.13;;;30.07;41.85
80504;BME280;69825;51.190;6.808;2023-06-26T07:28:47;101285.94;;;30.05;42.15
80504;BME280;69825;51.190;6.808;2023-06-26T07:31:13;101279.91;;;30.08;42.14
80504;BME280;69825;51.190;6.808;2023-06-26T07:33:39;101281.00;;;30.07;41.72
80504;BME280;69825;51.190;6.808;2023-06-26T07:36:05;101282.69;;;30.08;41.92
80504;BME280;69825;51.190;6.808;2023-06-26T07:38:30;101265.28;;;30.01;41.80
80504;BME280;69825;51.190;6.808;2023-06-26T07:40:56;101269.59;;;30.09;42.07
80504;BME280;69825;51.190;6.808;2023-06-26T07:43:21;101282.69;;;30.08;41.88
80504;BME280;69825;51.190;6.808;2023-06-26T07:45:48;101267.06;;;30.07;41.70
80504;BME280;69825;51.190;6.808;2023-06-26T07:48:13;101289.09;;;30.09;41.99
80504;BME280;69825;51.190;6.808;2023-06-26T07:50:38;101283.16;;;30.05;42.13
80504;BME280;69825;51.190;6.808;2023-06-26T07:53:04;101297.09;;;30.05;41.58
80504;BME280;69825;51.190;6.808;2023-06-26T07:55:31;101301.88;;;30.10;41.75
80504;BME280;69825;51.190;6.808;2023-06-26T07:57:56;101294.38;;;30.10;41.83
80504;BME280;69825;51.190;6.808;2023-06-26T08:00:22;101298.88;;;30.11;41.67
80504;BME280;69825;51.190;6.808;2023-06-26T08:02:47;101299.72;;;30.12;42.13
80504;BME280;69825;51.190;6.808;2023-06-26T08:05:13;101298.88;;;30.11;41.76
80504;BME280;69825;51.190;6.808;2023-06-26T08:07:38;101300.56;;;30.12;41.84
80504;BME280;69825;51.190;6.808;2023-06-26T08:10:04;101310.00;;;30.11;42.07
80504;BME280;69825;51.190;6.808;2023-06-26T08:12:30;101310.84;;;30.12;41.91
80504;BME280;69825;51.190;6.808;2023-06-26T08:14:55;101310.00;;;30.11;42.19
80504;BME280;69825;51.190;6.808;2023-06-26T08:17:21;101314.47;;;30.12;41.66
80504;BME280;69825;51.190;6.808;2023-06-26T08:19:46;101320.91;;;30.13;42.09
80504;BME280;69825;51.190;6.808;2023-06-26T08:22:11;101322.81;;;30.12;41.48
80504;BME280;69825;51.190;6.808;2023-06-26T08:24:37;101318.97;;;30.13;41.91
80504;BME280;69825;51.190;6.808;2023-06-26T08:27:02;101325.38;;;30.14;41.56
80504;BME280;69825;51.190;6.808;2023-06-26T08:29:28;101330.09;;;30.13;41.45
80504;BME280;69825;51.190;6.808;2023-06-26T08:31:54;101335.66;;;30.13;42.13
80504;BME280;69825;51.190;6.808;2023-06-26T08:34:19;101331.78;;;30.14;41.59
80504;BME280;69825;51.190;6.808;2023-06-26T08:36:45;101329.72;;;30.10;41.78
80504;BME280;69825;51.190;6.808;2023-06-26T08:39:10;101342.91;;;30.14;41.91
80504;BME280;69825;51.190;6.808;2023-06-26T08:41:35;101349.06;;;30.16;42.10
80504;BME280;69825;51.190;6.808;2023-06-26T08:44:02;101339.53;;;30.12;41.73
80504;BME280;69825;51.190;6.808;2023-06-26T08:46:28;101343.50;;;30.16;41.49
80504;BME280;69825;51.190;6.808;2023-06-26T08:49:00;101344.63;;;30.15;41.71
80504;BME280;69825;51.190;6.808;2023-06-26T08:51:28;101349.91;;;30.17;41.61
80504;BME280;69825;51.190;6.808;2023-06-26T08:53:58;101366.38;;;30.18;41.79
80504;BME280;69825;51.190;6.808;2023-06-26T08:56:26;101353.31;;;30.19;42.09
80504;BME280;69825;51.190;6.808;2023-06-26T08:58:53;101359.97;;;30.18;42.00
80504;BME280;69825;51.190;6.808;2023-06-26T09:01:18;101361.31;;;30.15;41.75
80504;BME280;69825;51.190;6.808;2023-06-26T09:03:44;101371.09;;;30.18;41.65
80504;BME280;69825;51.190;6.808;2023-06-26T09:06:09;101366.38;;;30.18;41.66
80504;BME280;69825;51.190;6.808;2023-06-26T09:08:35;101367.22;;;30.19;41.49
80504;BME280;69825;51.190;6.808;2023-06-26T09:11:00;101363.34;;;30.20;41.84
80504;BME280;69825;51.190;6.808;2023-06-26T09:13:25;101370.84;;;30.19;41.73
80504;BME280;69825;51.190;6.808;2023-06-26T09:15:53;101366.97;;;30.20;41.77
80504;BME280;69825;51.190;6.808;2023-06-26T09:18:20;101356.94;;;30.19;41.74
80504;BME280;69825;51.190;6.808;2023-06-26T09:20:46;101356.44;;;30.22;41.74
80504;BME280;69825;51.190;6.808;2023-06-26T09:23:11;101352.81;;;30.22;41.92
80504;BME280;69825;51.190;6.808;2023-06-26T09:25:39;101354.47;;;30.23;41.43
80504;BME280;69825;51.190;6.808;2023-06-26T09:28:05;101362.84;;;30.23;41.50
80504;BME280;69825;51.190;6.808;2023-06-26T09:30:32;101359.22;;;30.22;41.55
80504;BME280;69825;51.190;6.808;2023-06-26T09:32:57;101360.03;;;30.23;41.69
80504;BME280;69825;51.190;6.808;2023-06-26T09:35:23;101355.25;;;30.18;41.85
80504;BME280;69825;51.190;6.808;2023-06-26T09:37:50;101367.31;;;30.24;41.57
80504;BME280;69825;51.190;6.808;2023-06-26T09:40:15;101373.72;;;30.24;41.98
80504;BME280;69825;51.190;6.808;2023-06-26T09:42:41;101366.22;;;30.25;41.42
80504;BME280;69825;51.190;6.808;2023-06-26T09:45:07;101375.19;;;30.27;41.86
80504;BME280;69825;51.190;6.808;2023-06-26T09:47:34;101376.03;;;30.28;41.52
80504;BME280;69825;51.190;6.808;2023-06-26T09:49:59;101369.63;;;30.27;41.75
80504;BME280;69825;51.190;6.808;2023-06-26T09:52:26;101368.75;;;30.27;41.40
80504;BME280;69825;51.190;6.808;2023-06-26T09:55:07;101373.16;;;30.22;41.93
80504;BME280;69825;51.190;6.808;2023-06-26T09:57:39;101383.28;;;30.29;42.03
80504;BME280;69825;51.190;6.808;2023-06-26T10:00:05;101381.59;;;30.28;42.04
80504;BME280;69825;51.190;6.808;2023-06-26T10:02:33;101381.59;;;30.28;41.61
80504;BME280;69825;51.190;6.808;2023-06-26T10:04:58;101376.03;;;30.28;41.53
80504;BME280;69825;51.190;6.808;2023-06-26T10:07:24;101379.41;;;30.30;41.96
80504;BME280;69825;51.190;6.808;2023-06-26T10:09:50;101385.00;;;30.30;41.43
80504;BME280;69825;51.190;6.808;2023-06-26T10:12:20;101386.66;;;30.31;41.85
80504;BME280;69825;51.190;6.808;2023-06-26T10:14:48;101384.47;;;30.33;41.34
80504;BME280;69825;51.190;6.808;2023-06-26T10:17:16;101382.78;;;30.32;41.52
80504;BME280;69825;51.190;6.808;2023-06-26T10:19:45;101389.19;;;30.32;41.44
80504;BME280;69825;51.190;6.808;2023-06-26T10:22:13;101380.84;;;30.32;41.43
80504;BME280;69825;51.190;6.808;2023-06-26T10:24:40;101388.59;;;30.30;41.79
80504;BME280;69825;51.190;6.808;2023-06-26T10:27:16;101398.63;;;30.31;41.85
80504;BME280;69825;51.190;6.808;2023-06-26T10:29:47;101396.47;;;30.33;41.64
80504;BME280;69825;51.190;6.808;2023-06-26T10:32:13;101399.00;;;30.35;41.33
80504;BME280;69825;51.190;6.808;2023-06-26T10:34:40;101399.00;;;30.35;41.86
80504;BME280;69825;51.190;6.808;2023-06-26T10:37:06;101400.69;;;30.36;41.35
80504;BME280;69825;51.190;6.808;2023-06-26T10:39:45;101390.88;;;30.33;41.84
80504;BME280;69825;51.190;6.808;2023-06-26T10:42:12;101399.34;;;30.38;41.40
80504;BME280;69825;51.190;6.808;2023-06-26T10:44:43;101397.63;;;30.37;41.62
80504;BME280;69825;51.190;6.808;2023-06-26T10:47:09;101391.81;;;30.39;41.87
80504;BME280;69825;51.190;6.808;2023-06-26T10:49:36;101390.75;;;30.40;41.44
80504;BME280;69825;51.190;6.808;2023-06-26T10:52:02;101400.78;;;30.41;41.83
80504;BME280;69825;51.190;6.808;2023-06-26T10:54:31;101403.56;;;30.41;41.55
80504;BME280;69825;51.190;6.808;2023-06-26T10:56:56;101390.25;;;30.43;41.56
80504;BME280;69825;51.190;6.808;2023-06-26T10:59:24;101384.00;;;30.36;41.68
80504;BME280;69825;51.190;6.808;2023-06-26T11:02:04;101387.72;;;30.41;41.76
80504;BME280;69825;51.190;6.808;2023-06-26T11:04:38;101401.41;;;30.43;41.30
80504;BME280;69825;51.190;6.808;2023-06-26T11:07:17;101414.19;;;30.44;41.73
80504;BME280;69825;51.190;6.808;2023-06-26T11:12:34;101411.16;;;30.45;41.30
80504;BME280;69825;51.190;6.808;2023-06-26T11:15:00;101432.50;;;30.51;41.51
80504;BME280;69825;51.190;6.808;2023-06-26T11:17:26;101419.66;;;30.50;41.60
80504;BME280;69825;51.190;6.808;2023-06-26T11:19:52;101416.06;;;30.50;41.62
80504;BME280;69825;51.190;6.808;2023-06-26T11:22:18;101392.44;;;30.41;41.28
80504;BME280;69825;51.190;6.808;2023-06-26T11:24:44;101418.19;;;30.48;41.49
80504;BME280;69825;51.190;6.808;2023-06-26T11:27:09;101422.19;;;30.52;41.63
80504;BME280;69825;51.190;6.808;2023-06-26T11:29:35;101436.13;;;30.52;41.33
80504;BME280;69825;51.190;6.808;2023-06-26T11:32:02;101435.88;;;30.53;41.10
80504;BME280;69825;51.190;6.808;2023-06-26T11:34:30;101437.56;;;30.54;41.58
80504;BME280;69825;51.190;6.808;2023-06-26T11:36:56;101432.00;;;30.54;41.59
80504;BME280;69825;51.190;6.808;2023-06-26T11:39:22;101444.00;;;30.55;41.06
80504;BME280;69825;51.190;6.808;2023-06-26T11:41:47;101435.03;;;30.53;41.59
80504;BME280;69825;51.190;6.808;2023-06-26T11:44:12;101426.44;;;30.54;41.68
80504;BME280;69825;51.190;6.808;2023-06-26T11:46:40;101426.75;;;30.58;41.52
80504;BME280;69825;51.190;6.808;2023-06-26T11:49:06;101440.13;;;30.56;41.22
80504;BME280;69825;51.190;6.808;2023-06-26T11:51:32;101434.53;;;30.56;41.38
80504;BME280;69825;51.190;6.808;2023-06-26T11:54:01;101449.06;;;30.58;41.08
80504;BME280;69825;51.190;6.808;2023-06-26T11:56:28;101447.13;;;30.58;41.08
80504;BME280;69825;51.190;6.808;2023-06-26T12:01:43;101444.09;;;30.60;41.27
80504;BME280;69825;51.190;6.808;2023-06-26T12:04:14;101444.69;;;30.62;41.47
80504;BME280;69825;51.190;6.808;2023-06-26T12:06:42;101453.03;;;30.62;40.91
80504;BME280;69825;51.190;6.808;2023-06-26T12:09:11;101455.47;;;30.58;41.49
80504;BME280;69825;51.190;6.808;2023-06-26T12:11:39;101441.28;;;30.60;40.93
80504;BME280;69825;51.190;6.808;2023-06-26T12:14:06;101450.84;;;30.64;41.52
80504;BME280;69825;51.190;6.808;2023-06-26T12:16:34;101464.75;;;30.64;41.82
80504;BME280;69825;51.190;6.808;2023-06-26T12:19:03;101463.09;;;30.63;41.06
80504;BME280;69825;51.190;6.808;2023-06-26T12:21:33;101465.63;;;30.65;41.23
80504;BME280;69825;51.190;6.808;2023-06-26T12:24:12;101466.47;;;30.65;41.55
80504;BME280;69825;51.190;6.808;2023-06-26T12:26:38;101472.03;;;30.65;41.45
80504;BME280;69825;51.190;6.808;2023-06-26T12:29:08;101475.91;;;30.64;41.50
80504;BME280;69825;51.190;6.808;2023-06-26T12:31:34;101479.97;;;30.56;41.57
80504;BME280;69825;51.190;6.808;2023-06-26T12:34:00;101492.63;;;30.64;41.16
80504;BME280;69825;51.190;6.808;2023-06-26T12:36:25;101509.34;;;30.64;41.03
80504;BME280;69825;51.190;6.808;2023-06-26T12:38:53;101507.69;;;30.63;41.38
80504;BME280;69825;51.190;6.808;2023-06-26T12:41:19;101500.41;;;30.62;40.95
80504;BME280;69825;51.190;6.808;2023-06-26T12:43:46;101513.84;;;30.65;40.95
80504;BME280;69825;51.190;6.808;2023-06-26T12:46:11;101515.53;;;30.66;41.64
80504;BME280;69825;51.190;6.808;2023-06-26T12:48:44;101520.50;;;30.64;41.56
80504;BME280;69825;51.190;6.808;2023-06-26T12:51:15;101509.72;;;30.68;41.24
80504;BME280;69825;51.190;6.808;2023-06-26T12:53:40;101496.63;;;30.68;41.00